createdAt,value
2023-01-29T00:04:52.838Z,6.75
2023-01-29T00:09:55.512Z,6.03
2023-01-29T00:14:56.180Z,6.65
2023-01-29T00:19:56.831Z,5.88
2023-01-29T00:24:59.240Z,5.60
2023-01-29T00:30:14.028Z,5.97
2023-01-29T00:35:14.912Z,5.55
2023-01-29T00:40:18.464Z,6.22
2023-01-29T00:45:19.824Z,5.70
2023-01-29T00:50:20.728Z,6.15
2023-01-29T00:55:23.594Z,7.22
2023-01-29T01:00:25.824Z,6.80
2023-01-29T01:05:26.529Z,6.70
2023-01-29T01:10:31.247Z,6.63
2023-01-29T01:15:34.873Z,7.07
2023-01-29T01:20:36.864Z,6.55
2023-01-29T01:25:38.874Z,7.15
2023-01-29T01:30:39.661Z,8.00
2023-01-29T01:35:41.152Z,8.18
2023-01-29T01:40:47.275Z,8.02
2023-01-29T01:45:48.514Z,7.55
2023-01-29T01:50:53.130Z,7.60
2023-01-29T01:55:59.981Z,8.15
2023-01-29T02:01:01.286Z,7.65
2023-01-29T02:06:19.365Z,9.85
2023-01-29T02:11:21.719Z,7.85
2023-01-29T02:16:23.013Z,9.45
2023-01-29T02:21:54.247Z,9.88
2023-01-29T02:27:06.055Z,10.05
2023-01-29T02:32:18.353Z,9.65
2023-01-29T02:37:25.016Z,10.55
2023-01-29T02:42:29.436Z,10.23
2023-01-29T02:47:36.207Z,10.60
2023-01-29T02:52:44.694Z,10.68
2023-01-29T02:57:50.034Z,10.32
2023-01-29T03:02:56.400Z,10.27
2023-01-29T03:08:02.902Z,11.07
2023-01-29T03:13:14.292Z,10.10
2023-01-29T03:18:19.910Z,10.98
2023-01-29T03:23:24.195Z,11.00
2023-01-29T03:28:42.872Z,10.85
2023-01-29T03:33:51.488Z,10.73
2023-01-29T03:38:52.194Z,10.10
2023-01-29T03:44:02.345Z,11.23
2023-01-29T03:49:13.166Z,9.70
2023-01-29T03:54:19.585Z,9.20
2023-01-29T03:59:32.477Z,9.13
2023-01-29T04:05:06.709Z,8.88
2023-01-29T04:10:16.842Z,10.10
2023-01-29T04:15:20.069Z,10.32
2023-01-29T04:20:23.951Z,9.82
2023-01-29T04:25:30.216Z,10.38
2023-01-29T04:30:43.740Z,8.73
2023-01-29T04:36:02.079Z,9.35
2023-01-29T04:41:11.363Z,9.40
2023-01-29T04:46:17.520Z,9.85
2023-01-29T04:51:25.762Z,10.23
2023-01-29T04:56:32.244Z,10.35
2023-01-29T05:01:34.987Z,10.45
2023-01-29T05:06:38.797Z,10.07
2023-01-29T05:11:39.477Z,10.70
2023-01-29T05:16:46.039Z,10.27
2023-01-29T05:21:50.294Z,10.70
2023-01-29T05:27:11.449Z,10.57
2023-01-29T05:32:12.171Z,10.07
2023-01-29T05:37:14.160Z,10.43
2023-01-29T05:42:14.852Z,9.45
2023-01-29T05:47:15.529Z,10.93
2023-01-29T05:52:17.563Z,10.38
2023-01-29T05:57:18.258Z,10.18
2023-01-29T06:02:18.909Z,11.93
2023-01-29T06:07:20.912Z,11.45
2023-01-29T06:12:23.045Z,11.45
2023-01-29T06:17:23.851Z,11.07
2023-01-29T06:22:25.979Z,10.73
2023-01-29T06:27:26.715Z,11.55
2023-01-29T06:32:28.341Z,11.38
2023-01-29T06:37:30.414Z,12.83
2023-01-29T06:42:31.639Z,11.05
2023-01-29T06:47:32.332Z,11.10
2023-01-29T06:52:34.383Z,11.25
2023-01-29T06:57:35.062Z,11.45
2023-01-29T07:02:35.888Z,10.27
2023-01-29T07:07:37.950Z,10.40
2023-01-29T07:12:38.609Z,10.45
2023-01-29T07:17:39.310Z,9.70
2023-01-29T07:22:41.276Z,9.90
2023-01-29T07:27:42.130Z,9.77
2023-01-29T07:32:43.237Z,9.52
2023-01-29T07:37:45.259Z,10.02
2023-01-29T07:42:46.017Z,9.82
2023-01-29T07:47:46.688Z,9.98
2023-01-29T07:52:48.805Z,9.90
2023-01-29T07:57:55.724Z,9.85
2023-01-29T08:03:03.170Z,9.52
2023-01-29T08:08:07.497Z,10.32
2023-01-29T08:13:09.258Z,8.85
2023-01-29T08:18:10.197Z,9.18
2023-01-29T08:23:15.540Z,8.60
2023-01-29T08:28:16.367Z,9.50
2023-01-29T08:33:19.492Z,8.27
2023-01-29T08:38:23.561Z,8.82
2023-01-29T08:43:24.212Z,8.38
2023-01-29T08:48:25.265Z,8.13
2023-01-29T08:53:27.447Z,8.68
2023-01-29T08:58:28.290Z,7.65
2023-01-29T09:03:28.964Z,8.48
2023-01-29T09:08:31.003Z,8.73
2023-01-29T09:13:31.799Z,9.20
2023-01-29T09:18:32.845Z,9.05
2023-01-29T09:23:35.061Z,8.70
2023-01-29T09:28:35.761Z,8.63
2023-01-29T09:33:36.594Z,8.63
2023-01-29T09:38:38.646Z,8.82
2023-01-29T09:43:48.973Z,8.48
2023-01-29T09:48:58.770Z,8.73
2023-01-29T09:54:13.104Z,9.38
2023-01-29T09:59:19.276Z,9.25
2023-01-29T10:04:48.441Z,10.30
2023-01-29T10:10:04.859Z,9.43
2023-01-29T10:15:19.463Z,9.15
2023-01-29T10:20:36.625Z,9.65
2023-01-29T10:25:41.920Z,9.60
2023-01-29T10:30:48.463Z,9.10
2023-01-29T10:35:53.791Z,9.60
2023-01-29T10:41:08.627Z,8.75
2023-01-29T10:46:22.684Z,9.75
2023-01-29T10:51:41.151Z,9.48
2023-01-29T10:56:55.847Z,8.55
2023-01-29T11:01:59.113Z,10.07
2023-01-29T11:07:00.739Z,9.95
2023-01-29T11:12:06.450Z,10.20
2023-01-29T11:17:07.173Z,9.85
2023-01-29T11:22:15.189Z,9.75
2023-01-29T11:27:25.863Z,9.63
2023-01-29T11:32:29.692Z,9.57
2023-01-29T11:37:36.298Z,9.55
2023-01-29T11:42:39.280Z,8.73
2023-01-29T11:47:40.084Z,9.00
2023-01-29T11:52:42.328Z,10.27
2023-01-29T11:57:47.776Z,9.18
2023-01-29T12:02:51.792Z,9.75
2023-01-29T12:07:54.791Z,9.68
2023-01-29T12:13:05.757Z,9.50
2023-01-29T12:18:15.145Z,9.57
2023-01-29T12:23:26.702Z,9.75
2023-01-29T12:28:49.507Z,8.90
2023-01-29T12:33:55.315Z,8.13
2023-01-29T12:38:56.503Z,9.25
2023-01-29T12:44:03.504Z,9.23
2023-01-29T12:49:11.311Z,8.13
2023-01-29T12:54:17.401Z,8.10
2023-01-29T12:59:29.093Z,8.85
2023-01-29T13:04:41.218Z,8.93
2023-01-29T13:09:47.627Z,10.45
2023-01-29T13:14:54.747Z,9.30
2023-01-29T13:20:00.432Z,8.07
2023-01-29T13:25:05.792Z,8.88
2023-01-29T13:30:09.927Z,8.63
2023-01-29T13:35:15.737Z,8.65
2023-01-29T13:40:21.782Z,8.52
2023-01-29T13:45:26.314Z,8.55
2023-01-29T13:50:33.878Z,9.43
2023-01-29T13:55:37.308Z,8.98
2023-01-29T14:01:01.662Z,10.45
2023-01-29T14:06:02.955Z,8.90
2023-01-29T14:11:36.053Z,9.60
2023-01-29T14:16:38.543Z,8.95
2023-01-29T14:21:39.676Z,9.30
2023-01-29T14:26:46.020Z,9.90
2023-01-29T14:31:53.107Z,8.80
2023-01-29T14:36:57.148Z,10.05
2023-01-29T14:41:59.127Z,8.75
2023-01-29T14:47:01.286Z,8.45
2023-01-29T14:52:02.493Z,8.55
2023-01-29T14:57:07.230Z,9.20
2023-01-29T15:02:18.440Z,9.35
2023-01-29T15:07:29.167Z,8.98
2023-01-29T15:12:35.490Z,9.07
2023-01-29T15:17:47.138Z,9.32
2023-01-29T15:22:48.045Z,8.88
2023-01-29T15:27:50.140Z,8.15
2023-01-29T15:32:53.011Z,8.40
2023-01-29T15:38:01.628Z,8.75
2023-01-29T15:43:02.407Z,8.85
2023-01-29T15:48:09.482Z,8.63
2023-01-29T15:53:17.211Z,7.50
2023-01-29T15:58:21.739Z,8.23
2023-01-29T16:03:26.524Z,7.70
2023-01-29T16:08:28.968Z,8.32
2023-01-29T16:13:32.465Z,9.35
2023-01-29T16:18:38.303Z,8.43
2023-01-29T16:23:44.296Z,8.60
2023-01-29T16:28:46.281Z,6.68
2023-01-29T16:33:49.576Z,6.85
2023-01-29T16:38:54.240Z,7.25
2023-01-29T16:43:57.364Z,7.30
2023-01-29T16:48:59.655Z,6.97
2023-01-29T16:54:03.003Z,7.60
2023-01-29T16:59:05.441Z,8.60
2023-01-29T17:04:12.615Z,7.32
2023-01-29T17:09:22.114Z,7.50
2023-01-29T17:14:25.040Z,6.78
2023-01-29T17:19:27.050Z,7.28
2023-01-29T17:24:27.761Z,7.53
2023-01-29T17:29:31.106Z,7.63
2023-01-29T17:34:33.102Z,7.50
2023-01-29T17:39:33.766Z,8.55
2023-01-29T17:44:34.419Z,8.82
2023-01-29T17:49:37.405Z,7.50
2023-01-29T17:54:38.371Z,7.55
2023-01-29T17:59:39.098Z,7.13
2023-01-29T18:04:41.463Z,7.57
2023-01-29T18:09:43.543Z,7.38
2023-01-29T18:14:44.293Z,7.15
2023-01-29T18:19:46.408Z,8.23
2023-01-29T18:24:47.102Z,7.30
2023-01-29T18:29:50.009Z,7.43
2023-01-29T18:34:52.033Z,7.22
2023-01-29T18:39:53.918Z,7.82
2023-01-29T18:44:54.628Z,6.80
2023-01-29T18:49:56.606Z,6.88
2023-01-29T18:54:57.318Z,7.28
2023-01-29T18:59:58.017Z,7.40
2023-01-29T19:05:00.322Z,6.95
2023-01-29T19:10:02.343Z,7.07
2023-01-29T19:15:03.041Z,7.35
2023-01-29T19:20:05.752Z,7.30
2023-01-29T19:25:07.428Z,7.32
2023-01-29T19:30:10.248Z,7.93
2023-01-29T19:35:13.326Z,6.72
2023-01-29T19:40:14.832Z,7.05
2023-01-29T19:45:15.819Z,7.47
2023-01-29T19:50:18.447Z,7.13
2023-01-29T19:55:20.115Z,7.10
2023-01-29T20:00:22.086Z,6.93
2023-01-29T20:05:24.125Z,7.20
2023-01-29T20:10:27.620Z,6.82
2023-01-29T20:15:28.373Z,8.27
2023-01-29T20:20:32.858Z,7.50
2023-01-29T20:25:33.668Z,8.02
2023-01-29T20:30:34.836Z,7.68
2023-01-29T20:35:38.298Z,7.50
2023-01-29T20:40:39.089Z,7.20
2023-01-29T20:45:40.694Z,7.95
2023-01-29T20:50:43.930Z,7.30
2023-01-29T20:55:46.071Z,7.40
2023-01-29T21:00:47.740Z,7.65
2023-01-29T21:05:50.327Z,7.70
2023-01-29T21:10:52.978Z,7.50
2023-01-29T21:15:53.790Z,7.65
2023-01-29T21:20:56.092Z,7.88
2023-01-29T21:26:02.219Z,7.38
2023-01-29T21:31:04.654Z,8.15
2023-01-29T21:36:08.474Z,7.53
2023-01-29T21:41:10.755Z,8.02
2023-01-29T21:46:12.463Z,7.70
2023-01-29T21:51:14.594Z,8.05
2023-01-29T21:56:19.539Z,8.77
2023-01-29T22:01:38.179Z,8.45
2023-01-29T22:06:40.711Z,8.60
2023-01-29T22:11:44.505Z,8.65
2023-01-29T22:16:45.471Z,8.80
2023-01-29T22:21:47.568Z,10.03
2023-01-29T22:26:50.724Z,9.10
2023-01-29T22:31:51.421Z,9.73
2023-01-29T22:36:53.821Z,9.75
2023-01-29T22:41:54.497Z,7.45
2023-01-29T22:46:55.376Z,8.68
2023-01-29T22:52:10.807Z,8.77
2023-01-29T22:57:13.469Z,9.25
2023-01-29T23:02:14.135Z,9.73
2023-01-29T23:07:16.144Z,8.88
2023-01-29T23:12:17.101Z,8.40
2023-01-29T23:17:17.753Z,8.55
2023-01-29T23:22:19.793Z,8.68
2023-01-29T23:27:20.444Z,8.50
2023-01-29T23:32:22.083Z,9.07
2023-01-29T23:37:24.257Z,8.70
2023-01-29T23:42:24.989Z,8.70
2023-01-29T23:47:25.631Z,8.15
2023-01-29T23:52:27.602Z,8.68
2023-01-29T23:57:28.331Z,8.73
